메인 페이지
METAR-TAF:

METAR-TAF

공항 :

Dalaman, 터키

위도: 36-42N, 경도: 028-47E, 고도: 7m

현재 날씨관측

예보는 46분 전, 18:20시(UTC)에 발표되었습니다.
동북동5kt
온도 12°C
습도 88%
기압 1021 hPa
시정 10km 이상
1500m 미만 상공 구름 및 적란운 없음

METAR: LTBS 231820Z 06005KT CAVOK 12/10 Q1021 NOSIG RMK RWY19 34005KT 2AC120 5CI180

시각: 22:06 (19:06 UTC)

예보

예보는 2 시간 26분 전, 16:40시(UTC)에 발표되었습니다.
예보 대상 시간: 23일 18시부터 24일 18시까지 (UTC)
여러 방향의 바람 2kt
시정 10km 이상
1500m 미만 상공 구름 및 적란운 없음
전환 중
24일 00시부터 24일 02시까지 (UTC)
고도 3000ft 상공 구름 보통
고도 10000ft 상공 구름 많음
확률 30% :
일시적
24일 06시부터 24일 10시까지 (UTC)
약한소나기
전환 중
24일 07시부터 24일 09시까지 (UTC)
남남서12kt
전환 중
24일 14시부터 24일 16시까지 (UTC)
여러 방향의 바람 2kt

TAF: LTBS 231640Z 2318/2418 VRB02KT CAVOK BECMG 2400/2402 SCT030 BKN100 PROB30 TEMPO 2406/2410 -SHRA BECMG 2407/2409 21012KT BECMG 2414/2416 VRB02KT

4,000개 이상의 공항 관측 자료 및 예보 (METAR 및 TAF 보고).

지도상에서 검색 가능한 기상관측소가 노란 점과 빨간 점으로 표시되어 있습니다.

기상관측소 명을 보려면 표시 위로 마우스를 이동하세요.

날씨 관측과 예보를 보려면 클릭하세요.

지도 변경 : 확대하려면 엑스 표시가 있는 녹색 버튼, 축소하려면 빼기 표시가 있는 녹색 버튼, 다음 페이지의 지도를 보려면 녹색 화살표를 클릭하세요.


METAR-TAF: